createdAt,value
2023-11-02T00:01:10.036Z,99215.28
2023-11-02T00:03:40.124Z,99222.34
2023-11-02T00:06:11.046Z,99211.41
2023-11-02T00:08:39.712Z,99206.78
2023-11-02T00:11:09.154Z,99203.34
2023-11-02T00:13:36.619Z,99186.97
2023-11-02T00:16:05.905Z,99180.34
2023-11-02T00:18:32.970Z,99170.22
2023-11-02T00:20:59.960Z,99167.56
2023-11-02T00:23:37.478Z,99158.28
2023-11-02T00:26:04.435Z,99160.31
2023-11-02T00:28:30.990Z,99141.19
2023-11-02T00:30:57.838Z,99144.34
2023-11-02T00:33:24.703Z,99130.78
2023-11-02T00:35:52.974Z,99135.09
2023-11-02T00:38:21.899Z,99112.78
2023-11-02T00:40:48.717Z,99115.94
2023-11-02T00:43:16.083Z,99101.91
2023-11-02T00:45:43.281Z,99101.13
2023-11-02T00:48:17.535Z,99083.94
2023-11-02T00:50:52.994Z,99073.44
2023-11-02T00:53:19.628Z,99061.34
2023-11-02T00:55:46.239Z,99043.00
2023-11-02T00:58:13.090Z,99038.75
2023-11-02T01:00:54.584Z,99023.94
2023-11-02T01:03:25.618Z,99015.34
2023-11-02T01:05:52.312Z,99025.94
2023-11-02T01:08:30.367Z,99024.78
2023-11-02T01:10:56.985Z,99013.47
2023-11-02T01:13:24.149Z,99005.72
2023-11-02T01:16:07.954Z,99010.44
2023-11-02T01:18:35.643Z,98987.44
2023-11-02T01:21:04.666Z,98988.28
2023-11-02T01:23:33.769Z,98974.25
2023-11-02T01:26:03.037Z,98968.06
2023-11-02T01:28:50.216Z,98955.19
2023-11-02T01:31:19.200Z,98957.19
2023-11-02T01:33:56.335Z,98958.34
2023-11-02T01:36:46.384Z,98945.44
2023-11-02T01:39:16.197Z,98943.94
2023-11-02T01:42:08.711Z,98936.16
2023-11-02T01:44:41.768Z,98925.22
2023-11-02T01:47:21.280Z,98905.28
2023-11-02T01:50:15.281Z,98897.88
2023-11-02T01:53:01.736Z,98869.78
2023-11-02T01:55:58.102Z,98860.41
2023-11-02T01:58:44.001Z,98851.03
2023-11-02T02:01:27.876Z,98826.84
2023-11-02T02:04:25.502Z,98815.09
2023-11-02T02:07:14.673Z,98795.16
2023-11-02T02:10:03.724Z,98768.56
2023-11-02T02:12:45.199Z,98757.22
2023-11-02T02:15:22.226Z,98740.84
2023-11-02T02:18:04.562Z,98725.97
2023-11-02T02:20:36.336Z,98706.44
2023-11-02T02:23:30.048Z,98697.84
2023-11-02T02:25:59.383Z,98674.00
2023-11-02T02:29:01.486Z,98658.38
2023-11-02T02:31:47.661Z,98636.91
2023-11-02T02:34:45.904Z,98629.50
2023-11-02T02:37:26.789Z,98606.81
2023-11-02T02:40:12.971Z,98598.63
2023-11-02T02:42:40.179Z,98585.34
2023-11-02T02:45:11.936Z,98583.78
2023-11-02T02:47:39.756Z,98574.41
2023-11-02T02:50:10.857Z,98572.09
2023-11-02T02:52:39.413Z,98570.94
2023-11-02T02:55:08.529Z,98577.97
2023-11-02T02:57:39.182Z,98555.75
2023-11-02T03:00:09.242Z,98545.66
2023-11-02T03:02:37.717Z,98547.63
2023-11-02T03:05:05.998Z,98535.53
2023-11-02T03:07:33.011Z,98498.03
2023-11-02T03:10:04.419Z,98487.09
2023-11-02T03:12:35.284Z,98467.56
2023-11-02T03:15:09.058Z,98471.47
2023-11-02T03:17:56.963Z,98460.53
2023-11-02T03:20:24.412Z,98434.72
2023-11-02T03:22:51.059Z,98421.84
2023-11-02T03:25:52.855Z,98372.97
2023-11-02T03:28:54.167Z,98359.69
2023-11-02T03:31:31.577Z,98352.66
2023-11-02T03:34:09.721Z,98393.72
2023-11-02T03:36:48.534Z,98368.34
2023-11-02T03:39:52.941Z,98386.72
2023-11-02T03:42:42.337Z,98381.63
2023-11-02T03:45:54.026Z,98404.69
2023-11-02T03:48:38.304Z,98420.34
2023-11-02T03:51:30.271Z,98403.94
2023-11-02T03:54:12.075Z,98368.75
2023-11-02T03:56:49.784Z,98349.59
2023-11-02T03:59:24.200Z,98332.41
2023-11-02T04:02:01.672Z,98301.13
2023-11-02T04:04:40.741Z,98289.38
2023-11-02T04:07:12.863Z,98281.19
2023-11-02T04:09:50.812Z,98256.97
2023-11-02T04:12:36.060Z,98232.31
2023-11-02T04:15:04.724Z,98228.81
2023-11-02T04:17:31.330Z,98195.59
2023-11-02T04:19:59.215Z,98197.91
2023-11-02T04:22:25.838Z,98174.47
2023-11-02T04:24:52.944Z,98161.94
2023-11-02T04:27:19.772Z,98139.66
2023-11-02T04:29:46.535Z,98152.56
2023-11-02T04:32:13.133Z,98153.34
2023-11-02T04:34:40.519Z,98163.91
2023-11-02T04:37:17.041Z,98144.38
2023-11-02T04:39:44.595Z,98150.59
2023-11-02T04:42:17.017Z,98124.41
2023-11-02T04:44:43.888Z,98118.16
2023-11-02T04:47:10.464Z,98107.97
2023-11-02T04:49:37.340Z,98099.38
2023-11-02T04:52:05.398Z,98089.97
2023-11-02T04:54:33.131Z,98044.59
2023-11-02T04:57:01.621Z,98043.81
2023-11-02T04:59:30.533Z,98020.75
2023-11-02T05:04:42.915Z,98012.94
2023-11-02T05:07:13.510Z,98005.88
2023-11-02T05:09:41.292Z,97999.25
2023-11-02T05:12:07.920Z,98005.50
2023-11-02T05:14:34.419Z,97985.16
2023-11-02T05:17:04.383Z,97985.94
2023-11-02T05:19:30.935Z,97976.19
2023-11-02T05:21:57.432Z,97940.59
2023-11-02T05:24:24.017Z,97932.75
2023-11-02T05:26:50.532Z,97927.28
2023-11-02T05:29:17.048Z,97940.19
2023-11-02T05:31:43.536Z,97948.78
2023-11-02T05:34:10.129Z,97933.16
2023-11-02T05:36:36.816Z,97923.38
2023-11-02T05:39:13.780Z,97926.50
2023-11-02T05:42:04.466Z,97921.00
2023-11-02T05:44:44.656Z,97917.09
2023-11-02T05:47:11.221Z,97913.19
2023-11-02T05:49:38.224Z,97909.28
2023-11-02T05:52:05.130Z,97894.81
2023-11-02T05:54:31.989Z,97892.84
2023-11-02T05:57:17.069Z,97876.44
2023-11-02T05:59:43.599Z,97867.09
2023-11-02T06:02:11.093Z,97861.63
2023-11-02T06:04:37.821Z,97871.78
2023-11-02T06:07:04.633Z,97860.06
2023-11-02T06:09:32.716Z,97853.78
2023-11-02T06:11:59.346Z,97834.25
2023-11-02T06:14:25.909Z,97837.75
2023-11-02T06:16:52.362Z,97827.97
2023-11-02T06:19:19.351Z,97836.53
2023-11-02T06:21:45.973Z,97836.19
2023-11-02T06:24:12.575Z,97815.47
2023-11-02T06:26:39.071Z,97842.84
2023-11-02T06:29:05.586Z,97828.38
2023-11-02T06:31:32.316Z,97801.03
2023-11-02T06:33:58.953Z,97801.81
2023-11-02T06:36:25.440Z,97783.44
2023-11-02T06:38:51.944Z,97789.69
2023-11-02T06:41:18.533Z,97787.34
2023-11-02T06:43:45.563Z,97776.03
2023-11-02T06:46:12.082Z,97781.88
2023-11-02T06:48:39.261Z,97761.56
2023-11-02T06:51:06.383Z,97763.50
2023-11-02T06:53:33.041Z,97761.53
2023-11-02T06:55:59.655Z,97764.28
2023-11-02T06:58:28.993Z,97749.00
2023-11-02T07:00:57.867Z,97740.00
2023-11-02T07:03:25.366Z,97720.84
2023-11-02T07:05:52.105Z,97711.47
2023-11-02T07:08:18.582Z,97710.69
2023-11-02T07:10:45.116Z,97695.44
2023-11-02T07:13:13.456Z,97676.25
2023-11-02T07:15:40.997Z,97673.13
2023-11-02T07:18:07.922Z,97671.56
2023-11-02T07:20:34.528Z,97655.13
2023-11-02T07:23:01.040Z,97660.53
2023-11-02T07:25:27.642Z,97634.69
2023-11-02T07:27:54.497Z,97622.56
2023-11-02T07:30:21.185Z,97652.25
2023-11-02T07:32:47.817Z,97653.84
2023-11-02T07:35:14.459Z,97672.97
2023-11-02T07:37:40.921Z,97640.88
2023-11-02T07:40:09.439Z,97636.16
2023-11-02T07:42:35.985Z,97620.88
2023-11-02T07:45:03.514Z,97646.31
2023-11-02T07:47:30.077Z,97640.06
2023-11-02T07:49:57.724Z,97618.16
2023-11-02T07:52:24.616Z,97648.66
2023-11-02T07:54:51.177Z,97633.75
2023-11-02T07:57:18.919Z,97603.22
2023-11-02T07:59:46.053Z,97594.19
2023-11-02T08:02:12.582Z,97593.72
2023-11-02T08:04:39.140Z,97598.41
2023-11-02T08:07:08.707Z,97571.00
2023-11-02T08:09:36.201Z,97583.13
2023-11-02T08:12:03.805Z,97579.56
2023-11-02T08:14:30.685Z,97579.53
2023-11-02T08:16:57.225Z,97561.47
2023-11-02T08:19:24.938Z,97568.44
2023-11-02T08:21:52.951Z,97548.06
2023-11-02T08:24:19.538Z,97545.34
2023-11-02T08:26:46.432Z,97535.50
2023-11-02T08:29:12.910Z,97540.97
2023-11-02T08:31:40.498Z,97538.63
2023-11-02T08:34:07.144Z,97523.72
2023-11-02T08:36:35.612Z,97520.28
2023-11-02T08:39:03.686Z,97529.53
2023-11-02T08:41:34.047Z,97520.22
2023-11-02T08:44:01.266Z,97519.09
2023-11-02T08:46:27.878Z,97523.03
2023-11-02T08:48:55.028Z,97498.53
2023-11-02T08:51:23.281Z,97517.03
2023-11-02T08:53:51.694Z,97510.78
2023-11-02T08:56:18.702Z,97506.47
2023-11-02T08:58:52.330Z,97490.38
2023-11-02T09:01:25.147Z,97517.03
2023-11-02T09:03:53.323Z,97497.38
2023-11-02T09:06:22.358Z,97493.03
2023-11-02T09:08:52.292Z,97483.97
2023-11-02T09:11:19.737Z,97490.13
2023-11-02T09:13:46.664Z,97464.19
2023-11-02T09:16:13.228Z,97465.63
2023-11-02T09:18:39.902Z,97457.69
2023-11-02T09:21:06.970Z,97469.66
2023-11-02T09:23:35.542Z,97457.34
2023-11-02T09:26:03.938Z,97447.50
2023-11-02T09:28:30.525Z,97447.06
2023-11-02T09:30:57.120Z,97431.84
2023-11-02T09:33:23.787Z,97432.41
2023-11-02T09:35:50.517Z,97443.91
2023-11-02T09:38:17.073Z,97441.44
2023-11-02T09:40:44.132Z,97434.41
2023-11-02T09:43:12.468Z,97430.47
2023-11-02T09:45:39.099Z,97426.91
2023-11-02T09:48:06.068Z,97431.25
2023-11-02T09:50:32.759Z,97437.03
2023-11-02T09:53:01.562Z,97429.81
2023-11-02T09:55:29.604Z,97409.06
2023-11-02T09:57:56.591Z,97420.13
2023-11-02T10:00:23.245Z,97448.84
2023-11-02T10:02:51.393Z,97435.16
2023-11-02T10:05:19.079Z,97413.94
2023-11-02T10:07:51.513Z,97424.22
2023-11-02T10:10:19.182Z,97395.97
2023-11-02T10:12:45.885Z,97403.44
2023-11-02T10:15:17.814Z,97395.81
2023-11-02T10:17:45.376Z,97406.03
2023-11-02T10:20:13.898Z,97399.78
2023-11-02T10:22:45.856Z,97400.19
2023-11-02T10:25:14.823Z,97395.03
2023-11-02T10:27:47.675Z,97400.13
2023-11-02T10:30:14.901Z,97389.97
2023-11-02T10:32:41.684Z,97391.59
2023-11-02T10:35:08.660Z,97388.84
2023-11-02T10:37:39.938Z,97377.56
2023-11-02T10:40:07.131Z,97389.06
2023-11-02T10:42:33.962Z,97366.94
2023-11-02T10:45:01.509Z,97352.59
2023-11-02T10:47:31.706Z,97340.44
2023-11-02T10:50:00.881Z,97322.81
2023-11-02T10:52:47.647Z,97332.81
2023-11-02T10:55:26.754Z,97348.38
2023-11-02T10:57:54.287Z,97348.25
2023-11-02T11:00:23.923Z,97349.91
2023-11-02T11:02:50.920Z,97342.34
2023-11-02T11:05:21.412Z,97342.72
2023-11-02T11:07:53.377Z,97337.41
2023-11-02T11:10:20.785Z,97334.25
2023-11-02T11:12:48.288Z,97349.13
2023-11-02T11:15:16.518Z,97342.50
2023-11-02T11:17:48.247Z,97328.03
2023-11-02T11:20:17.356Z,97339.19
2023-11-02T11:22:52.039Z,97324.94
2023-11-02T11:25:19.872Z,97312.72
2023-11-02T11:27:52.444Z,97299.97
2023-11-02T11:30:22.501Z,97292.00
2023-11-02T11:32:50.524Z,97309.94
2023-11-02T11:35:20.372Z,97303.88
2023-11-02T11:37:58.268Z,97282.88
2023-11-02T11:40:27.848Z,97301.81
2023-11-02T11:43:13.295Z,97287.75
2023-11-02T11:45:52.954Z,97255.56
2023-11-02T11:48:31.786Z,97261.16
2023-11-02T11:50:59.219Z,97295.16
2023-11-02T11:53:29.665Z,97312.25
2023-11-02T11:55:57.264Z,97301.84
2023-11-02T11:59:26.804Z,97308.28
2023-11-02T12:02:45.630Z,97334.31
2023-11-02T12:05:44.499Z,97326.34
2023-11-02T12:08:12.025Z,97302.69
2023-11-02T12:10:51.884Z,97309.31
2023-11-02T12:13:18.603Z,97310.44
2023-11-02T12:16:02.565Z,97342.59
2023-11-02T12:18:30.010Z,97280.94
2023-11-02T12:21:05.791Z,97311.28
2023-11-02T12:23:37.891Z,97304.00
2023-11-02T12:26:06.038Z,97294.00
2023-11-02T12:28:52.794Z,97304.81
2023-11-02T12:31:31.317Z,97307.38
2023-11-02T12:33:59.592Z,97313.88
2023-11-02T12:36:26.629Z,97307.06
2023-11-02T12:38:55.202Z,97315.63
2023-11-02T12:41:29.085Z,97323.66
2023-11-02T12:44:05.815Z,97300.53
2023-11-02T12:46:39.642Z,97308.84
2023-11-02T12:49:14.191Z,97292.84
2023-11-02T12:51:41.281Z,97297.56
2023-11-02T12:54:10.164Z,97306.66
2023-11-02T12:56:36.850Z,97288.69
2023-11-02T12:59:06.942Z,97329.22
2023-11-02T13:01:52.883Z,97308.50
2023-11-02T13:04:19.910Z,97302.78
2023-11-02T13:06:46.616Z,97304.41
2023-11-02T13:09:19.567Z,97293.34
2023-11-02T13:11:51.484Z,97293.34
2023-11-02T13:14:21.547Z,97283.44
2023-11-02T13:16:52.641Z,97290.84
2023-11-02T13:19:20.920Z,97271.13
2023-11-02T13:21:51.551Z,97283.56
2023-11-02T13:24:19.281Z,97293.34
2023-11-02T13:26:46.261Z,97313.34
2023-11-02T13:29:14.913Z,97297.28
2023-11-02T13:31:41.952Z,97290.25
2023-11-02T13:34:10.691Z,97294.59
2023-11-02T13:36:37.493Z,97294.28
2023-11-02T13:39:07.002Z,97288.44
2023-11-02T13:41:34.031Z,97277.88
2023-11-02T13:44:01.001Z,97294.00
2023-11-02T13:46:28.063Z,97278.78
2023-11-02T13:48:56.213Z,97267.81
2023-11-02T13:51:24.493Z,97270.53
2023-11-02T13:53:51.027Z,97260.75
2023-11-02T13:56:17.519Z,97261.97
2023-11-02T13:58:44.253Z,97241.63
2023-11-02T14:01:11.640Z,97262.09
2023-11-02T14:03:39.133Z,97257.47
2023-11-02T14:06:06.204Z,97252.06
2023-11-02T14:08:36.722Z,97242.78
2023-11-02T14:11:06.934Z,97271.84
2023-11-02T14:13:34.136Z,97270.28
2023-11-02T14:16:00.843Z,97256.16
2023-11-02T14:18:28.233Z,97246.78
2023-11-02T14:20:54.728Z,97263.31
2023-11-02T14:23:22.154Z,97277.50
2023-11-02T14:25:49.496Z,97261.16
2023-11-02T14:28:16.099Z,97246.88
2023-11-02T14:30:42.984Z,97260.00
2023-11-02T14:33:11.574Z,97255.81
2023-11-02T14:35:38.514Z,97263.75
2023-11-02T14:38:05.048Z,97273.25
2023-11-02T14:40:31.574Z,97263.94
2023-11-02T14:42:58.149Z,97252.63
2023-11-02T14:45:24.970Z,97258.94
2023-11-02T14:47:53.009Z,97261.25
2023-11-02T14:50:19.901Z,97263.22
2023-11-02T14:52:48.709Z,97286.34
2023-11-02T14:55:16.596Z,97285.97
2023-11-02T14:57:43.648Z,97291.09
2023-11-02T15:00:13.923Z,97298.22
2023-11-02T15:02:43.737Z,97306.91
2023-11-02T15:05:11.183Z,97302.34
2023-11-02T15:07:38.147Z,97294.56
2023-11-02T15:10:06.124Z,97304.03
2023-11-02T15:12:32.808Z,97293.16
2023-11-02T15:15:01.877Z,97318.63
2023-11-02T15:17:31.141Z,97282.72
2023-11-02T15:20:04.885Z,97308.59
2023-11-02T15:22:35.202Z,97305.97
2023-11-02T15:25:04.539Z,97324.84
2023-11-02T15:27:31.741Z,97325.72
2023-11-02T15:29:58.457Z,97332.09
2023-11-02T15:32:25.161Z,97327.06
2023-11-02T15:34:57.524Z,97322.03
2023-11-02T15:37:28.034Z,97329.13
2023-11-02T15:39:55.730Z,97337.00
2023-11-02T15:42:22.310Z,97330.00
2023-11-02T15:44:49.064Z,97332.38
2023-11-02T15:47:20.741Z,97337.91
2023-11-02T15:49:49.042Z,97337.94
2023-11-02T15:52:19.157Z,97324.72
2023-11-02T15:54:48.262Z,97348.91
2023-11-02T15:57:17.345Z,97354.06
2023-11-02T15:59:44.746Z,97357.59
2023-11-02T16:02:14.263Z,97367.03
2023-11-02T16:04:42.034Z,97375.66
2023-11-02T16:07:09.082Z,97356.56
2023-11-02T16:09:35.658Z,97365.56
2023-11-02T16:12:02.482Z,97383.53
2023-11-02T16:14:29.002Z,97370.28
2023-11-02T16:16:55.582Z,97383.56
2023-11-02T16:19:30.121Z,97392.56
2023-11-02T16:21:59.902Z,97391.41
2023-11-02T16:24:26.468Z,97378.94
2023-11-02T16:26:55.320Z,97380.53
2023-11-02T16:29:22.811Z,97389.53
2023-11-02T16:31:49.964Z,97381.34
2023-11-02T16:34:27.599Z,97407.91
2023-11-02T16:37:01.777Z,97373.16
2023-11-02T16:39:28.397Z,97400.47
2023-11-02T16:41:57.752Z,97404.78
2023-11-02T16:44:24.484Z,97404.00
2023-11-02T16:46:51.774Z,97414.94
2023-11-02T16:49:20.497Z,97400.47
2023-11-02T16:51:48.997Z,97414.13
2023-11-02T16:54:16.127Z,97388.34
2023-11-02T16:56:44.626Z,97420.34
2023-11-02T16:59:12.652Z,97400.81
2023-11-02T17:01:40.550Z,97398.88
2023-11-02T17:04:08.167Z,97407.03
2023-11-02T17:06:34.986Z,97417.59
2023-11-02T17:09:01.948Z,97410.53
2023-11-02T17:11:29.686Z,97429.28
2023-11-02T17:13:56.184Z,97426.13
2023-11-02T17:16:24.196Z,97437.84
2023-11-02T17:18:50.798Z,97411.66
2023-11-02T17:21:17.457Z,97411.66
2023-11-02T17:23:46.282Z,97432.38
2023-11-02T17:26:13.150Z,97435.47
2023-11-02T17:28:42.038Z,97437.00
2023-11-02T17:31:11.608Z,97426.84
2023-11-02T17:33:40.353Z,97422.53
2023-11-02T17:36:11.274Z,97431.13
2023-11-02T17:38:38.274Z,97437.72
2023-11-02T17:41:05.411Z,97454.13
2023-11-02T17:43:31.993Z,97460.75
2023-11-02T17:46:02.977Z,97457.63
2023-11-02T17:48:30.730Z,97454.06
2023-11-02T17:50:58.024Z,97443.50
2023-11-02T17:53:26.204Z,97469.72
2023-11-02T17:55:53.367Z,97463.44
2023-11-02T17:58:19.944Z,97454.44
2023-11-02T18:00:46.496Z,97462.63
2023-11-02T18:03:15.548Z,97467.72
2023-11-02T18:05:42.286Z,97488.81
2023-11-02T18:08:10.592Z,97485.69
2023-11-02T18:10:38.381Z,97481.75
2023-11-02T18:13:05.512Z,97484.88
2023-11-02T18:15:32.136Z,97494.25
2023-11-02T18:17:58.753Z,97494.59
2023-11-02T18:20:25.390Z,97514.50
2023-11-02T18:22:52.255Z,97495.72
2023-11-02T18:25:19.957Z,97505.09
2023-11-02T18:27:46.599Z,97508.19
2023-11-02T18:30:14.046Z,97505.81
2023-11-02T18:32:41.042Z,97553.50
2023-11-02T18:35:10.526Z,97536.28
2023-11-02T18:37:38.421Z,97535.06
2023-11-02T18:40:06.130Z,97535.84
2023-11-02T18:42:33.812Z,97532.31
2023-11-02T18:45:00.458Z,97540.09
2023-11-02T18:47:26.939Z,97549.47
2023-11-02T18:49:56.071Z,97529.47
2023-11-02T18:52:22.646Z,97554.50
2023-11-02T18:54:56.824Z,97537.66
2023-11-02T18:57:23.563Z,97535.28
2023-11-02T18:59:50.623Z,97527.47
2023-11-02T19:02:17.463Z,97502.84
2023-11-02T19:04:45.656Z,97531.00
2023-11-02T19:07:12.394Z,97531.00
2023-11-02T19:09:43.604Z,97559.59
2023-11-02T19:12:10.192Z,97536.50
2023-11-02T19:14:37.118Z,97539.97
2023-11-02T19:17:03.822Z,97513.38
2023-11-02T19:19:33.394Z,97547.00
2023-11-02T19:22:02.139Z,97547.75
2023-11-02T19:24:31.022Z,97533.28
2023-11-02T19:26:58.752Z,97532.16
2023-11-02T19:29:25.208Z,97543.13
2023-11-02T19:31:53.165Z,97509.50
2023-11-02T19:34:20.947Z,97537.66
2023-11-02T19:36:49.192Z,97532.94
2023-11-02T19:39:15.851Z,97554.47
2023-11-02T19:41:44.699Z,97574.81
2023-11-02T19:44:12.171Z,97572.50
2023-11-02T19:46:41.073Z,97582.34
2023-11-02T19:49:10.590Z,97558.53
2023-11-02T19:51:37.786Z,97580.09
2023-11-02T19:54:10.074Z,97553.16
2023-11-02T19:56:44.652Z,97569.22
2023-11-02T19:59:12.236Z,97573.94
2023-11-02T20:01:39.600Z,97579.47
2023-11-02T20:04:07.718Z,97574.78
2023-11-02T20:06:37.394Z,97561.50
2023-11-02T20:09:05.690Z,97587.31
2023-11-02T20:11:33.300Z,97592.00
2023-11-02T20:13:59.935Z,97575.22
2023-11-02T20:16:26.663Z,97585.38
2023-11-02T20:18:53.504Z,97590.47
2023-11-02T20:21:22.285Z,97586.56
2023-11-02T20:23:49.125Z,97586.19
2023-11-02T20:26:15.819Z,97590.13
2023-11-02T20:28:44.040Z,97590.53
2023-11-02T20:31:12.495Z,97590.56
2023-11-02T20:33:39.931Z,97603.09
2023-11-02T20:36:06.728Z,97616.78
2023-11-02T20:38:33.483Z,97597.28
2023-11-02T20:41:00.611Z,97607.44
2023-11-02T20:43:27.936Z,97620.72
2023-11-02T20:45:54.572Z,97613.34
2023-11-02T20:48:21.263Z,97614.53
2023-11-02T20:50:48.096Z,97614.53
2023-11-02T20:53:15.096Z,97618.84
2023-11-02T20:55:42.407Z,97610.25
2023-11-02T20:58:08.892Z,97616.50
2023-11-02T21:00:47.332Z,97627.44
2023-11-02T21:03:19.442Z,97623.91
2023-11-02T21:05:45.928Z,97632.91
2023-11-02T21:08:12.393Z,97625.50
2023-11-02T21:10:38.919Z,97638.41
2023-11-02T21:13:05.515Z,97625.13
2023-11-02T21:15:32.297Z,97629.03
2023-11-02T21:17:58.881Z,97633.31
2023-11-02T21:20:25.364Z,97644.25
2023-11-02T21:22:52.025Z,97625.94
2023-11-02T21:25:18.669Z,97637.97
2023-11-02T21:27:46.700Z,97642.66
2023-11-02T21:30:13.815Z,97607.56
2023-11-02T21:32:41.760Z,97626.63
2023-11-02T21:35:08.971Z,97639.06
2023-11-02T21:37:35.532Z,97628.16
2023-11-02T21:40:05.330Z,97623.47
2023-11-02T21:42:32.537Z,97621.50
2023-11-02T21:44:59.009Z,97618.75
2023-11-02T21:47:26.637Z,97619.91
2023-11-02T21:49:53.198Z,97604.69
2023-11-02T21:52:19.789Z,97617.16
2023-11-02T21:54:46.553Z,97600.78
2023-11-02T21:57:13.225Z,97604.28
2023-11-02T21:59:42.441Z,97609.72
2023-11-02T22:02:08.922Z,97605.84
2023-11-02T22:04:35.649Z,97605.06
2023-11-02T22:07:04.641Z,97594.53
2023-11-02T22:09:32.192Z,97607.78
2023-11-02T22:11:59.641Z,97602.31
2023-11-02T22:14:26.176Z,97591.03
2023-11-02T22:16:52.691Z,97611.28
2023-11-02T22:19:19.377Z,97599.19
2023-11-02T22:21:48.072Z,97618.28
2023-11-02T22:24:14.544Z,97611.66
2023-11-02T22:26:41.132Z,97614.41
2023-11-02T22:29:07.695Z,97607.00
2023-11-02T22:31:34.206Z,97602.34
2023-11-02T22:34:01.013Z,97622.97
2023-11-02T22:36:27.642Z,97621.03
2023-11-02T22:38:59.012Z,97640.91
2023-11-02T22:41:30.130Z,97629.22
2023-11-02T22:43:56.641Z,97636.63
2023-11-02T22:46:23.202Z,97646.75
2023-11-02T22:48:49.884Z,97656.13
2023-11-02T22:51:17.304Z,97646.00
2023-11-02T22:53:43.737Z,97654.53
2023-11-02T22:56:11.657Z,97642.47
2023-11-02T22:58:38.882Z,97645.97
2023-11-02T23:01:05.699Z,97651.81
2023-11-02T23:03:33.178Z,97656.91
2023-11-02T23:06:00.504Z,97646.78
2023-11-02T23:08:29.260Z,97660.81
2023-11-02T23:10:56.151Z,97669.78
2023-11-02T23:13:23.427Z,97663.16
2023-11-02T23:15:52.851Z,97674.47
2023-11-02T23:18:19.934Z,97680.31
2023-11-02T23:20:46.507Z,97676.81
2023-11-02T23:23:13.126Z,97676.41
2023-11-02T23:25:40.037Z,97683.06
2023-11-02T23:28:06.820Z,97669.41
2023-11-02T23:30:33.739Z,97667.88
2023-11-02T23:33:00.407Z,97691.25
2023-11-02T23:35:27.007Z,97692.03
2023-11-02T23:37:54.070Z,97688.53
2023-11-02T23:40:21.100Z,97668.66
2023-11-02T23:42:48.579Z,97685.41
2023-11-02T23:45:15.970Z,97682.69
2023-11-02T23:47:42.454Z,97690.47
2023-11-02T23:50:09.139Z,97686.19
2023-11-02T23:52:35.731Z,97677.22
2023-11-02T23:55:04.397Z,97695.16
2023-11-02T23:57:30.926Z,97701.41
2023-11-02T23:59:57.677Z,97696.31
